Time;durP1;ratioP1;P1;durP2;ratioP2;P2;SDS_P1;SDS_P2;PMS_P1;PMS_P2;Temp;Humidity;BMP_temperature;BMP_pressure;BME280_temperature;BME280_humidity;BME280_pressure;Samples;Min_cycle;Max_cycle;Signal;HPM_P1;HPM_P2
2023/04/20 00:01:40;;;;;;;7.60;3.78;;;9.70;99.70;;;;;;6185937;23;20101;-94
2023/04/20 00:04:06;;;;;;;7.43;3.55;;;9.70;99.90;;;;;;6185542;23;20016;-93
2023/04/20 00:06:32;;;;;;;8.50;3.75;;;9.70;99.90;;;;;;6187187;23;20017;-93
2023/04/20 00:08:59;;;;;;;8.55;3.10;;;9.70;99.90;;;;;;6187968;23;20020;-93
2023/04/20 00:11:25;;;;;;;6.68;3.00;;;9.70;99.60;;;;;;6185989;23;20021;-93
2023/04/20 00:13:51;;;;;;;6.55;3.08;;;9.70;99.60;;;;;;6187484;23;20093;-92
2023/04/20 00:16:16;;;;;;;7.25;3.03;;;9.70;99.20;;;;;;6186795;23;20040;-92
2023/04/20 00:18:47;;;;;;;6.07;2.97;;;9.70;99.10;;;;;;6187159;23;20341;-93
2023/04/20 00:21:12;;;;;;;7.75;3.33;;;9.80;99.50;;;;;;6186164;23;20067;-93
2023/04/20 00:23:38;;;;;;;6.90;3.25;;;9.80;99.40;;;;;;6184569;23;20017;-92
2023/04/20 00:26:04;;;;;;;5.82;2.97;;;9.70;99.50;;;;;;6187153;23;20322;-92
2023/04/20 00:28:30;;;;;;;7.60;3.03;;;9.70;99.20;;;;;;6185160;23;20017;-92
2023/04/20 00:30:56;;;;;;;5.57;2.45;;;9.70;99.30;;;;;;6186145;23;20097;-92
2023/04/20 00:33:21;;;;;;;7.28;3.28;;;9.70;99.00;;;;;;6187235;23;20017;-91
2023/04/20 00:35:47;;;;;;;6.07;3.22;;;9.80;99.00;;;;;;6184929;23;20390;-93
2023/04/20 00:38:13;;;;;;;6.85;2.90;;;9.70;99.20;;;;;;6185251;23;20013;-93
2023/04/20 00:40:38;;;;;;;7.53;3.13;;;9.70;99.20;;;;;;6185351;23;20009;-92
2023/04/20 00:43:11;;;;;;;6.68;2.75;;;9.70;99.20;;;;;;6185513;23;20095;-92
2023/04/20 00:45:37;;;;;;;6.78;3.00;;;9.70;99.20;;;;;;6185854;23;20107;-91
2023/04/20 00:48:03;;;;;;;5.85;2.65;;;9.60;99.40;;;;;;6184678;23;20021;-92
2023/04/20 00:50:29;;;;;;;6.15;3.03;;;9.60;99.20;;;;;;6184415;23;20442;-92
2023/04/20 00:52:55;;;;;;;5.53;2.55;;;9.60;99.20;;;;;;6184440;23;20484;-92
2023/04/20 00:55:21;;;;;;;6.45;2.75;;;9.60;99.10;;;;;;6185536;23;20020;-94
2023/04/20 00:57:48;;;;;;;6.15;3.03;;;9.60;99.30;;;;;;6184990;23;20430;-92
2023/04/20 01:00:14;;;;;;;7.72;2.67;;;9.60;99.40;;;;;;6184488;23;20421;-92
2023/04/20 01:02:40;;;;;;;5.15;2.30;;;9.60;99.40;;;;;;6185277;23;20071;-92
2023/04/20 01:05:05;;;;;;;5.75;2.42;;;9.50;99.20;;;;;;6185063;23;20063;-92
2023/04/20 01:07:31;;;;;;;5.95;2.70;;;9.50;99.10;;;;;;6184731;23;20017;-91
2023/04/20 01:09:57;;;;;;;6.40;2.42;;;9.50;99.10;;;;;;6185187;23;20451;-91
2023/04/20 01:12:22;;;;;;;4.63;2.20;;;9.50;99.10;;;;;;6184330;23;20032;-91
2023/04/20 01:14:48;;;;;;;5.95;2.35;;;9.50;98.90;;;;;;6186764;23;20013;-92
2023/04/20 01:17:13;;;;;;;5.15;2.50;;;9.50;98.80;;;;;;6184825;23;20418;-92
2023/04/20 01:19:40;;;;;;;6.00;2.50;;;9.50;99.00;;;;;;6186476;23;20020;-92
2023/04/20 01:22:07;;;;;;;6.38;2.60;;;9.40;99.10;;;;;;6185277;23;20017;-92
2023/04/20 01:24:32;;;;;;;5.95;2.40;;;9.40;99.20;;;;;;6184961;23;20024;-92
2023/04/20 01:27:00;;;;;;;5.15;2.10;;;9.40;99.40;;;;;;6184765;23;20017;-92
2023/04/20 01:29:26;;;;;;;4.63;2.20;;;9.40;99.30;;;;;;6185194;23;20017;-92
2023/04/20 01:31:52;;;;;;;5.50;2.40;;;9.40;99.10;;;;;;6186374;23;20048;-92
2023/04/20 01:34:17;;;;;;;4.53;2.20;;;9.40;99.10;;;;;;6184110;23;20442;-92
2023/04/20 01:36:44;;;;;;;5.78;2.28;;;9.40;99.30;;;;;;6184677;23;20025;-92
2023/04/20 01:39:10;;;;;;;5.63;2.20;;;9.40;99.40;;;;;;6186582;23;20059;-92
2023/04/20 01:41:35;;;;;;;7.00;2.33;;;9.40;99.40;;;;;;6185504;23;20020;-93
2023/04/20 01:44:01;;;;;;;6.47;2.25;;;9.40;99.30;;;;;;6186709;23;20099;-93
2023/04/20 01:46:27;;;;;;;5.05;2.38;;;9.40;99.10;;;;;;6186507;23;20024;-93
2023/04/20 01:48:52;;;;;;;6.63;2.30;;;9.40;99.10;;;;;;6186088;23;20009;-92
2023/04/20 01:51:18;;;;;;;8.00;2.10;;;9.40;99.30;;;;;;6185365;23;20520;-92
2023/04/20 01:53:43;;;;;;;7.55;2.28;;;9.40;99.30;;;;;;6184973;23;20017;-92
2023/04/20 01:56:09;;;;;;;4.25;1.90;;;9.50;99.10;;;;;;6184411;23;20021;-93
2023/04/20 01:58:35;;;;;;;7.00;2.25;;;9.40;99.10;;;;;;6186487;23;20075;-94
2023/04/20 02:01:01;;;;;;;7.32;2.17;;;9.40;98.70;;;;;;6185405;23;20446;-93
2023/04/20 02:03:27;;;;;;;5.00;1.95;;;9.40;98.70;;;;;;6184941;23;20088;-93
2023/04/20 02:05:52;;;;;;;4.85;2.15;;;9.40;98.80;;;;;;6186834;23;20060;-92
2023/04/20 02:08:18;;;;;;;8.50;2.20;;;9.40;98.90;;;;;;6186732;23;20021;-93
2023/04/20 02:10:44;;;;;;;5.25;2.00;;;9.40;98.80;;;;;;6186086;23;20021;-93
2023/04/20 02:13:10;;;;;;;4.93;1.92;;;9.40;98.90;;;;;;6184711;23;20450;-92
2023/04/20 02:15:36;;;;;;;4.57;1.80;;;9.40;98.90;;;;;;6184264;23;20021;-92
2023/04/20 02:18:02;;;;;;;3.95;2.00;;;9.40;99.00;;;;;;6183894;23;20016;-90
2023/04/20 02:20:28;;;;;;;6.10;2.33;;;9.40;99.10;;;;;;6184666;23;20457;-92
2023/04/20 02:22:53;;;;;;;6.25;2.10;;;9.40;99.00;;;;;;6183843;23;20017;-92
2023/04/20 02:25:20;;;;;;;5.35;2.10;;;9.40;99.00;;;;;;6184927;23;20017;-92
2023/04/20 02:27:45;;;;;;;5.28;2.10;;;9.30;98.90;;;;;;6184521;23;20016;-93
2023/04/20 02:30:12;;;;;;;5.68;1.85;;;9.30;98.80;;;;;;6184490;23;20061;-92
2023/04/20 02:32:37;;;;;;;6.15;2.30;;;9.30;98.80;;;;;;6184947;23;20021;-92
2023/04/20 02:35:03;;;;;;;5.38;2.00;;;9.30;98.90;;;;;;6185081;23;20096;-93
2023/04/20 02:37:29;;;;;;;6.43;2.38;;;9.30;99.00;;;;;;6184960;23;20017;-92
2023/04/20 02:39:55;;;;;;;4.40;1.88;;;9.30;99.20;;;;;;6185787;23;20453;-93
2023/04/20 02:42:20;;;;;;;5.25;2.25;;;9.30;99.20;;;;;;6186587;23;20024;-93
2023/04/20 02:44:46;;;;;;;7.10;2.10;;;9.30;99.50;;;;;;6185947;23;20013;-91
2023/04/20 02:47:12;;;;;;;5.63;2.13;;;9.30;99.50;;;;;;6186808;23;20017;-92
2023/04/20 02:49:37;;;;;;;5.45;2.20;;;9.30;99.60;;;;;;6186415;23;20080;-93
2023/04/20 02:52:04;;;;;;;6.03;2.22;;;9.30;99.50;;;;;;6184260;23;20020;-93
2023/04/20 02:54:29;;;;;;;4.82;1.95;;;9.20;99.50;;;;;;6185169;23;20446;-92
2023/04/20 02:56:55;;;;;;;6.47;2.00;;;9.20;99.40;;;;;;6186081;23;20017;-92
2023/04/20 02:59:21;;;;;;;8.13;1.80;;;9.20;99.30;;;;;;6186601;23;20470;-94
2023/04/20 03:01:46;;;;;;;5.82;2.00;;;9.20;99.10;;;;;;6188289;23;20340;-92
2023/04/20 03:04:12;;;;;;;7.47;2.20;;;9.20;99.10;;;;;;6186553;23;20067;-92
2023/04/20 03:06:39;;;;;;;5.20;1.67;;;9.20;99.00;;;;;;6186048;23;20357;-92
2023/04/20 03:09:06;;;;;;;5.05;2.20;;;9.20;99.00;;;;;;6186557;23;20311;-92
2023/04/20 03:11:31;;;;;;;6.03;2.05;;;9.10;99.00;;;;;;6188265;23;20021;-93
2023/04/20 03:13:57;;;;;;;5.35;2.20;;;9.20;99.00;;;;;;6188359;23;20092;-93
2023/04/20 03:16:23;;;;;;;6.43;1.98;;;9.20;99.10;;;;;;6189280;23;20096;-93
2023/04/20 03:18:48;;;;;;;6.40;2.10;;;9.20;99.20;;;;;;6188765;23;20021;-94
2023/04/20 03:21:14;;;;;;;6.00;2.00;;;9.20;99.20;;;;;;6187279;23;20025;-92
2023/04/20 03:23:39;;;;;;;5.60;2.00;;;9.20;99.30;;;;;;6186676;23;20048;-93
2023/04/20 03:26:05;;;;;;;8.43;2.35;;;9.20;99.00;;;;;;6186326;23;20017;-93
2023/04/20 03:28:30;;;;;;;4.90;1.88;;;9.20;98.90;;;;;;6186992;23;20070;-93
2023/04/20 03:30:56;;;;;;;4.38;1.80;;;9.10;98.60;;;;;;6186906;23;20024;-93
2023/04/20 03:33:22;;;;;;;4.13;1.85;;;9.20;98.80;;;;;;6187008;23;20020;-92
2023/04/20 03:35:47;;;;;;;4.93;2.08;;;9.10;98.80;;;;;;6187902;23;20467;-93
2023/04/20 03:38:13;;;;;;;8.98;2.20;;;9.20;98.80;;;;;;6188228;23;20017;-93
2023/04/20 03:40:38;;;;;;;5.72;1.95;;;9.10;98.30;;;;;;6185263;23;20017;-92
2023/04/20 03:43:04;;;;;;;4.90;2.10;;;9.10;98.20;;;;;;6188073;23;20020;-94
2023/04/20 03:45:30;;;;;;;6.82;2.20;;;9.10;98.40;;;;;;6186219;23;20017;-93
2023/04/20 03:47:55;;;;;;;4.88;2.22;;;9.10;98.70;;;;;;6188770;23;20017;-96
2023/04/20 03:50:21;;;;;;;6.10;2.08;;;9.10;98.90;;;;;;6189281;23;20021;-96
2023/04/20 03:52:47;;;;;;;5.10;1.80;;;9.10;98.80;;;;;;6188663;23;20342;-95
2023/04/20 03:55:12;;;;;;;5.32;2.17;;;9.10;98.50;;;;;;6189227;23;20017;-94
2023/04/20 03:57:38;;;;;;;9.23;2.08;;;9.10;98.60;;;;;;6188952;23;20013;-95
2023/04/20 04:00:04;;;;;;;5.32;2.00;;;9.10;98.10;;;;;;6189664;23;20024;-93
2023/04/20 04:02:30;;;;;;;5.88;2.10;;;9.10;98.10;;;;;;6186421;23;20048;-95
2023/04/20 04:04:56;;;;;;;6.63;2.40;;;9.20;98.50;;;;;;6189167;23;20067;-94
2023/04/20 04:07:21;;;;;;;5.32;2.13;;;9.10;98.60;;;;;;6189604;23;20025;-95
2023/04/20 04:09:47;;;;;;;5.18;2.25;;;9.10;98.60;;;;;;6186671;23;20020;-94
2023/04/20 04:12:12;;;;;;;7.32;2.00;;;9.10;98.70;;;;;;6187287;23;20017;-95
2023/04/20 04:14:38;;;;;;;5.95;2.00;;;9.10;98.50;;;;;;6187286;23;20048;-94
2023/04/20 04:17:04;;;;;;;5.82;2.08;;;9.10;98.10;;;;;;6186681;23;20370;-94
2023/04/20 04:19:30;;;;;;;6.85;2.40;;;9.10;97.80;;;;;;6188694;23;20020;-95
2023/04/20 04:21:55;;;;;;;5.15;2.08;;;9.00;97.90;;;;;;6185852;23;20032;-93
2023/04/20 04:24:21;;;;;;;5.82;2.10;;;9.10;98.10;;;;;;6185637;23;20017;-95
2023/04/20 04:26:47;;;;;;;6.22;2.30;;;9.10;98.30;;;;;;6186889;23;20024;-89
2023/04/20 04:29:13;;;;;;;7.70;1.90;;;9.00;98.20;;;;;;6186529;23;20013;-91
2023/04/20 04:31:38;;;;;;;5.70;1.83;;;9.10;98.20;;;;;;6185987;23;20089;-90
2023/04/20 04:34:04;;;;;;;5.97;2.22;;;9.00;98.10;;;;;;6185744;23;20464;-92
2023/04/20 04:36:31;;;;;;;4.75;1.95;;;9.10;98.10;;;;;;6184448;23;20024;-93
2023/04/20 04:38:56;;;;;;;6.63;2.03;;;9.00;98.10;;;;;;6186084;23;20021;-92
2023/04/20 04:41:22;;;;;;;5.07;2.30;;;9.00;97.50;;;;;;6186510;23;20040;-93
2023/04/20 04:43:48;;;;;;;5.15;2.10;;;9.00;97.50;;;;;;6185855;23;20068;-92
2023/04/20 04:46:13;;;;;;;5.53;2.00;;;9.00;97.70;;;;;;6188319;23;20319;-92
2023/04/20 04:48:41;;;;;;;6.63;2.10;;;9.00;97.90;;;;;;6186124;23;20017;-89
2023/04/20 04:51:07;;;;;;;5.65;2.10;;;9.00;98.00;;;;;;6185820;23;20024;-92
2023/04/20 04:53:34;;;;;;;4.53;2.00;;;9.00;98.10;;;;;;6188225;23;20037;-93
2023/04/20 04:56:00;;;;;;;5.85;2.17;;;9.00;97.90;;;;;;6186989;23;20035;-93
2023/04/20 04:58:26;;;;;;;5.78;2.20;;;9.00;97.70;;;;;;6188226;23;20502;-95
2023/04/20 05:00:51;;;;;;;7.57;2.13;;;9.00;97.90;;;;;;6187180;23;20024;-94
2023/04/20 05:03:17;;;;;;;5.05;2.00;;;9.00;98.10;;;;;;6188762;23;20024;-95
2023/04/20 05:05:42;;;;;;;6.55;2.00;;;9.00;98.10;;;;;;6188576;23;20017;-94
2023/04/20 05:08:08;;;;;;;7.20;2.13;;;8.90;98.00;;;;;;6186135;23;20017;-95
2023/04/20 05:10:34;;;;;;;5.35;2.05;;;8.90;98.10;;;;;;6186942;23;20017;-95
2023/04/20 05:13:00;;;;;;;5.72;2.25;;;8.90;98.00;;;;;;6189323;23;20016;-96
2023/04/20 05:15:26;;;;;;;6.47;1.88;;;8.90;98.10;;;;;;6189780;23;20020;-95
2023/04/20 05:17:55;;;;;;;7.43;2.10;;;8.90;98.30;;;;;;6189572;23;20025;-95
2023/04/20 05:20:20;;;;;;;6.38;2.17;;;8.90;98.20;;;;;;6187614;23;20044;-95
2023/04/20 05:22:46;;;;;;;7.10;2.00;;;8.80;98.30;;;;;;6188130;23;20037;-96
2023/04/20 05:25:11;;;;;;;6.22;2.22;;;8.80;98.40;;;;;;6191921;23;20043;-96
2023/04/20 05:27:37;;;;;;;6.85;2.13;;;8.80;98.50;;;;;;6188591;23;20398;-96
2023/04/20 05:30:03;;;;;;;5.80;2.20;;;8.80;98.50;;;;;;6190676;23;20013;-96
2023/04/20 05:32:29;;;;;;;7.95;2.33;;;8.80;98.70;;;;;;6188943;23;20067;-96
2023/04/20 05:34:54;;;;;;;6.03;2.00;;;8.80;98.80;;;;;;6191156;23;20020;-96
2023/04/20 05:37:20;;;;;;;6.03;2.28;;;8.80;98.80;;;;;;6190754;23;20009;-96
2023/04/20 05:39:46;;;;;;;5.32;2.05;;;8.80;98.80;;;;;;6191966;23;20021;-95
2023/04/20 05:42:11;;;;;;;5.80;2.10;;;8.80;98.80;;;;;;6192265;23;20021;-96
2023/04/20 05:44:38;;;;;;;6.00;2.10;;;8.70;98.80;;;;;;6188503;23;20036;-93
2023/04/20 05:47:05;;;;;;;6.97;2.42;;;8.70;98.80;;;;;;6189087;23;20017;-95
2023/04/20 05:49:31;;;;;;;5.63;2.22;;;8.70;98.90;;;;;;6188136;23;20443;-94
2023/04/20 05:51:57;;;;;;;4.70;2.05;;;8.70;99.00;;;;;;6186167;23;20028;-93
2023/04/20 05:54:23;;;;;;;5.32;2.40;;;8.70;99.00;;;;;;6188125;23;20010;-94
2023/04/20 05:56:49;;;;;;;5.40;2.30;;;8.70;99.10;;;;;;6186217;23;20021;-95
2023/04/20 05:59:16;;;;;;;7.55;2.10;;;8.70;99.20;;;;;;6185693;23;20021;-95
2023/04/20 06:01:41;;;;;;;7.72;2.40;;;8.70;99.10;;;;;;6186829;23;20021;-91
2023/04/20 06:04:07;;;;;;;7.05;2.40;;;8.60;99.20;;;;;;6187832;23;20055;-93
2023/04/20 06:06:33;;;;;;;7.05;2.40;;;8.60;99.30;;;;;;6184969;23;20057;-95
2023/04/20 06:08:58;;;;;;;6.32;2.33;;;8.60;99.30;;;;;;6185093;23;20024;-95
2023/04/20 06:11:24;;;;;;;6.40;2.42;;;8.60;99.30;;;;;;6185603;23;20021;-93
2023/04/20 06:13:50;;;;;;;6.60;2.55;;;8.50;99.30;;;;;;6184794;23;20013;-92
2023/04/20 06:16:15;;;;;;;5.75;2.40;;;8.50;99.40;;;;;;6184682;23;20096;-94
2023/04/20 06:18:41;;;;;;;6.28;2.22;;;8.50;99.50;;;;;;6185142;23;20024;-92
2023/04/20 06:21:09;;;;;;;7.10;2.35;;;8.50;99.50;;;;;;6184411;23;20021;-92
2023/04/20 06:23:36;;;;;;;5.78;2.38;;;8.50;99.70;;;;;;6182990;23;20040;-91
2023/04/20 06:26:02;;;;;;;7.22;2.40;;;8.50;99.70;;;;;;6184541;23;20013;-91
2023/04/20 06:28:28;;;;;;;7.30;2.40;;;8.50;99.50;;;;;;6185490;23;20020;-92
2023/04/20 06:30:53;;;;;;;5.88;2.25;;;8.50;99.60;;;;;;6183181;23;20040;-91
2023/04/20 06:33:19;;;;;;;5.13;2.25;;;8.50;99.80;;;;;;6186192;23;20021;-93
2023/04/20 06:35:45;;;;;;;4.18;2.22;;;8.50;99.80;;;;;;6186282;23;20454;-91
2023/04/20 06:38:10;;;;;;;5.95;2.10;;;8.40;99.90;;;;;;6186542;23;20032;-91
2023/04/20 06:40:36;;;;;;;5.45;2.35;;;8.40;99.90;;;;;;6187149;23;20319;-92
2023/04/20 06:43:02;;;;;;;8.50;2.50;;;8.40;99.90;;;;;;6186993;23;20017;-93
2023/04/20 06:45:27;;;;;;;7.88;2.30;;;8.40;99.90;;;;;;6186822;23;20025;-94
2023/04/20 06:47:53;;;;;;;5.30;2.53;;;8.40;99.90;;;;;;6185628;23;20028;-93
2023/04/20 06:50:18;;;;;;;6.10;2.40;;;8.40;99.90;;;;;;6186403;23;20070;-93
2023/04/20 06:52:46;;;;;;;6.68;2.60;;;8.40;99.90;;;;;;6185282;23;20017;-90
2023/04/20 06:55:12;;;;;;;5.13;2.17;;;8.40;99.90;;;;;;6187776;23;20329;-92
2023/04/20 06:57:38;;;;;;;6.75;2.17;;;8.40;99.90;;;;;;6184208;23;20338;-91
2023/04/20 07:00:08;;;;;;;5.38;2.20;;;8.40;99.90;;;;;;6187224;23;20028;-93
2023/04/20 07:02:48;;;;;;;6.97;2.53;;;8.40;99.90;;;;;;6183960;23;20076;-92
2023/04/20 07:05:15;;;;;;;7.97;2.75;;;8.40;99.90;;;;;;6183380;23;20009;-90
2023/04/20 07:07:41;;;;;;;4.32;2.08;;;8.40;99.90;;;;;;6183165;23;20019;-89
2023/04/20 07:10:08;;;;;;;5.90;2.38;;;8.40;99.90;;;;;;6182527;23;20108;-89
2023/04/20 07:12:35;;;;;;;5.28;2.22;;;8.40;99.90;;;;;;6180980;23;20051;-89
2023/04/20 07:15:05;;;;;;;7.28;2.30;;;8.40;99.90;;;;;;6183850;23;20017;-89
2023/04/20 07:17:31;;;;;;;4.88;2.13;;;8.40;99.90;;;;;;6183442;23;20311;-90
2023/04/20 07:19:58;;;;;;;4.93;2.25;;;8.40;99.90;;;;;;6183813;23;20088;-90
2023/04/20 07:22:24;;;;;;;6.47;2.30;;;8.40;99.90;;;;;;6182354;23;20021;-91
2023/04/20 07:24:50;;;;;;;4.90;2.22;;;8.40;99.90;;;;;;6182468;23;20035;-91
2023/04/20 07:27:16;;;;;;;6.07;2.60;;;8.40;99.90;;;;;;6183591;23;20017;-91
2023/04/20 07:29:42;;;;;;;5.03;2.40;;;8.40;99.90;;;;;;6183299;23;20060;-90
2023/04/20 07:32:09;;;;;;;5.28;2.30;;;8.40;99.90;;;;;;6183428;23;20100;-90
2023/04/20 07:34:35;;;;;;;5.68;2.17;;;8.40;99.90;;;;;;6182157;23;20485;-89
2023/04/20 07:37:01;;;;;;;4.60;2.20;;;8.30;99.90;;;;;;6181740;23;20021;-91
2023/04/20 07:39:29;;;;;;;5.22;2.20;;;8.30;99.90;;;;;;6180743;23;20028;-90
2023/04/20 07:41:55;;;;;;;6.20;2.40;;;8.30;99.90;;;;;;6182082;23;20021;-90
2023/04/20 07:44:21;;;;;;;5.75;2.50;;;8.30;99.90;;;;;;6181336;23;20452;-90
2023/04/20 07:46:48;;;;;;;6.00;2.40;;;8.30;99.90;;;;;;6181101;23;20020;-90
2023/04/20 07:49:14;;;;;;;5.55;2.55;;;8.30;99.90;;;;;;6182731;23;20068;-91
2023/04/20 07:51:40;;;;;;;7.93;2.50;;;8.30;99.90;;;;;;6184895;23;20017;-90
2023/04/20 07:54:06;;;;;;;8.02;2.42;;;8.30;99.90;;;;;;6183601;23;20064;-92
2023/04/20 07:56:32;;;;;;;7.38;2.47;;;8.30;99.90;;;;;;6184716;23;20028;-93
2023/04/20 07:58:58;;;;;;;7.28;2.63;;;8.30;99.90;;;;;;6184529;23;20021;-92
2023/04/20 08:03:51;;;;;;;6.70;2.60;;;8.20;99.90;;;;;;6185569;22;20020;-92
2023/04/20 08:06:16;;;;;;;4.88;2.30;;;8.20;99.90;;;;;;6184616;23;20013;-92
2023/04/20 08:08:42;;;;;;;5.30;2.72;;;8.30;99.90;;;;;;6185201;23;20380;-93
2023/04/20 08:11:08;;;;;;;6.00;2.60;;;8.30;99.90;;;;;;6186924;23;20009;-92
2023/04/20 08:13:36;;;;;;;5.47;2.63;;;8.30;99.90;;;;;;6183278;23;20036;-91
2023/04/20 08:16:01;;;;;;;4.35;2.50;;;8.30;99.90;;;;;;6185065;23;20013;-90
2023/04/20 08:18:29;;;;;;;5.47;2.90;;;8.30;99.90;;;;;;6185335;23;20106;-92
2023/04/20 08:20:55;;;;;;;5.38;2.78;;;8.30;99.90;;;;;;6183066;23;20017;-91
2023/04/20 08:23:26;;;;;;;5.95;2.70;;;8.30;99.90;;;;;;6183165;23;20021;-92
2023/04/20 08:25:53;;;;;;;5.63;2.55;;;8.30;99.90;;;;;;6184085;23;20028;-91
2023/04/20 08:28:19;;;;;;;7.65;2.83;;;8.30;99.90;;;;;;6185580;23;20020;-92
2023/04/20 08:30:45;;;;;;;8.80;2.85;;;8.30;99.90;;;;;;6184370;23;20493;-93
2023/04/20 08:33:11;;;;;;;5.30;2.78;;;8.30;99.90;;;;;;6184674;23;20147;-92
2023/04/20 08:35:37;;;;;;;6.40;2.70;;;8.40;99.90;;;;;;6183541;23;20045;-92
2023/04/20 08:38:03;;;;;;;5.97;2.80;;;8.40;99.90;;;;;;6184587;23;20013;-93
2023/04/20 08:40:30;;;;;;;6.43;2.60;;;8.30;99.90;;;;;;6186769;23;20023;-93
2023/04/20 08:42:58;;;;;;;5.07;2.78;;;8.40;99.90;;;;;;6184605;23;20025;-92
2023/04/20 08:45:24;;;;;;;7.15;2.83;;;8.40;99.90;;;;;;6185440;23;20013;-93
2023/04/20 08:47:51;;;;;;;7.03;2.63;;;8.50;99.90;;;;;;6184489;23;20016;-93
2023/04/20 08:50:18;;;;;;;6.20;2.90;;;8.50;99.90;;;;;;6185067;23;20052;-92
2023/04/20 08:52:44;;;;;;;5.40;2.60;;;8.50;99.90;;;;;;6186728;23;20013;-92
2023/04/20 08:55:15;;;;;;;7.22;3.03;;;8.50;99.90;;;;;;6187242;23;20021;-92
2023/04/20 08:57:41;;;;;;;6.18;2.88;;;8.50;99.90;;;;;;6186338;23;20024;-93
2023/04/20 09:00:09;;;;;;;4.88;2.65;;;8.50;99.90;;;;;;6185794;23;20013;-93
2023/04/20 09:02:35;;;;;;;6.65;2.80;;;8.50;99.90;;;;;;6184821;23;20017;-91
2023/04/20 09:05:03;;;;;;;8.10;3.05;;;8.50;99.90;;;;;;6186800;23;20021;-93
2023/04/20 09:07:29;;;;;;;6.05;2.88;;;8.50;99.90;;;;;;6185513;23;20025;-93
2023/04/20 09:09:56;;;;;;;6.15;2.85;;;8.50;99.90;;;;;;6185611;23;20101;-93
2023/04/20 09:12:23;;;;;;;7.88;3.10;;;8.50;99.90;;;;;;6184757;23;20028;-92
2023/04/20 09:14:50;;;;;;;6.40;2.80;;;8.50;99.90;;;;;;6185179;23;20099;-93
2023/04/20 09:17:28;;;;;;;8.20;3.28;;;8.60;99.90;;;;;;6187040;23;20024;-93
2023/04/20 09:19:54;;;;;;;6.07;3.08;;;8.60;99.90;;;;;;6184760;23;20021;-93
2023/04/20 09:22:36;;;;;;;5.90;2.65;;;8.60;99.90;;;;;;6160521;23;20060;-92
2023/04/20 09:25:17;;;;;;;6.82;2.90;;;8.60;99.90;;;;;;6186470;23;20013;-91
2023/04/20 09:27:57;;;;;;;7.47;3.30;;;8.60;99.90;;;;;;6178432;23;20024;-92
2023/04/20 09:30:23;;;;;;;7.03;3.33;;;8.60;99.90;;;;;;6186598;23;20009;-93
2023/04/20 09:33:03;;;;;;;7.55;3.58;;;8.70;99.90;;;;;;6184579;23;20021;-92
2023/04/20 09:35:30;;;;;;;9.18;3.53;;;8.70;99.90;;;;;;6185648;23;20045;-93
2023/04/20 09:37:55;;;;;;;6.25;3.38;;;8.70;99.90;;;;;;6186257;23;20121;-91
2023/04/20 09:40:24;;;;;;;7.10;3.40;;;8.70;99.90;;;;;;6185887;23;20036;-92
2023/04/20 09:42:52;;;;;;;6.50;3.35;;;8.80;99.90;;;;;;6186878;23;20013;-92
2023/04/20 09:45:18;;;;;;;7.95;3.47;;;8.80;99.90;;;;;;6185499;23;20104;-94
2023/04/20 09:47:44;;;;;;;6.50;3.47;;;8.70;99.90;;;;;;6187071;23;20021;-92
2023/04/20 09:50:11;;;;;;;6.35;3.38;;;8.70;99.90;;;;;;6188216;23;20366;-93
2023/04/20 09:52:37;;;;;;;7.80;3.88;;;8.80;99.90;;;;;;6187518;23;20441;-92
2023/04/20 09:55:05;;;;;;;5.75;3.60;;;8.80;99.90;;;;;;6188093;23;20021;-93
2023/04/20 09:57:31;;;;;;;5.82;3.45;;;8.80;99.90;;;;;;6188255;23;20076;-90
2023/04/20 09:59:58;;;;;;;7.30;3.60;;;8.80;99.90;;;;;;6185124;23;20013;-90
2023/04/20 10:02:24;;;;;;;6.55;3.47;;;8.80;99.90;;;;;;6185511;23;20017;-91
2023/04/20 10:04:54;;;;;;;6.13;3.53;;;8.80;99.90;;;;;;6187108;23;20044;-90
2023/04/20 10:07:28;;;;;;;6.40;3.60;;;8.80;99.90;;;;;;6184204;23;20024;-91
2023/04/20 10:10:11;;;;;;;6.65;3.97;;;8.80;99.90;;;;;;6184654;23;20017;-90
2023/04/20 10:12:51;;;;;;;7.00;3.60;;;8.80;99.90;;;;;;6186346;23;20017;-91
2023/04/20 10:15:17;;;;;;;5.47;3.40;;;8.80;99.90;;;;;;6183294;23;20263;-91
2023/04/20 10:17:43;;;;;;;7.22;3.53;;;8.90;99.90;;;;;;6184969;23;20095;-91
2023/04/20 10:20:20;;;;;;;7.65;3.47;;;8.90;99.90;;;;;;6185222;23;20017;-91
2023/04/20 10:22:45;;;;;;;7.32;3.92;;;8.90;99.90;;;;;;6185256;23;20025;-92
2023/04/20 10:25:22;;;;;;;8.20;3.67;;;8.90;99.90;;;;;;6183252;23;20013;-91
2023/04/20 10:27:53;;;;;;;7.97;4.20;;;8.90;99.90;;;;;;6186129;23;20021;-91
2023/04/20 10:30:19;;;;;;;7.65;3.75;;;8.90;99.90;;;;;;6184378;23;20013;-91
2023/04/20 10:32:45;;;;;;;7.38;4.38;;;8.90;99.90;;;;;;6186012;23;20168;-91
2023/04/20 10:35:12;;;;;;;6.10;3.65;;;8.90;99.90;;;;;;6185168;23;20045;-90
2023/04/20 10:37:49;;;;;;;8.10;4.18;;;8.90;99.90;;;;;;6185677;23;20450;-91
2023/04/20 10:40:15;;;;;;;8.18;4.10;;;9.00;99.90;;;;;;6187614;23;20063;-91
2023/04/20 10:42:45;;;;;;;6.75;3.80;;;9.00;99.90;;;;;;6183610;23;20013;-92
2023/04/20 10:45:11;;;;;;;8.55;4.15;;;9.00;99.90;;;;;;6186999;23;20028;-91
2023/04/20 10:47:39;;;;;;;8.82;3.97;;;9.00;99.90;;;;;;6184946;23;20047;-90
2023/04/20 10:50:14;;;;;;;7.22;4.30;;;9.00;99.90;;;;;;6187278;23;20048;-91
2023/04/20 10:52:43;;;;;;;7.78;4.43;;;9.00;99.90;;;;;;6187371;23;20017;-91
2023/04/20 10:55:22;;;;;;;6.72;4.13;;;9.00;99.90;;;;;;6185390;23;20013;-92
2023/04/20 10:57:48;;;;;;;8.07;4.55;;;9.00;99.90;;;;;;6184689;23;20373;-91
2023/04/20 11:00:19;;;;;;;7.50;4.40;;;9.00;99.90;;;;;;6184476;23;20130;-91
2023/04/20 11:02:50;;;;;;;7.28;4.30;;;9.00;99.90;;;;;;6186982;23;20023;-92
2023/04/20 11:05:17;;;;;;;8.10;4.80;;;9.00;99.90;;;;;;6185350;23;20025;-91
2023/04/20 11:07:53;;;;;;;6.90;4.20;;;9.10;99.90;;;;;;6187729;23;20021;-92
2023/04/20 11:10:36;;;;;;;8.30;4.22;;;9.10;99.90;;;;;;6185503;23;20075;-90
2023/04/20 11:13:02;;;;;;;7.32;4.63;;;9.10;99.90;;;;;;6186114;23;20497;-93
2023/04/20 11:15:32;;;;;;;9.98;5.28;;;9.10;99.90;;;;;;6186654;23;20045;-93
2023/04/20 11:18:10;;;;;;;8.15;5.20;;;9.10;99.90;;;;;;6187848;23;20017;-93
2023/04/20 11:20:37;;;;;;;11.43;5.65;;;9.20;99.90;;;;;;6185135;23;20017;-93
2023/04/20 11:23:04;;;;;;;8.75;4.70;;;9.20;99.90;;;;;;6185400;23;20017;-92
2023/04/20 11:25:30;;;;;;;7.53;4.88;;;9.30;99.90;;;;;;6184629;23;20017;-92
2023/04/20 11:28:08;;;;;;;8.82;5.15;;;9.30;99.90;;;;;;6186724;23;20085;-91
2023/04/20 11:30:38;;;;;;;8.05;4.40;;;9.40;99.90;;;;;;6184632;23;20442;-91
2023/04/20 11:33:07;;;;;;;10.15;5.40;;;9.50;99.90;;;;;;6188289;23;20017;-94
2023/04/20 11:35:37;;;;;;;8.45;5.72;;;9.50;99.90;;;;;;6187105;23;20031;-90
2023/04/20 11:38:03;;;;;;;8.98;5.68;;;9.50;99.90;;;;;;6188839;23;20024;-91
2023/04/20 11:40:29;;;;;;;8.60;5.32;;;9.60;99.90;;;;;;6186047;23;20013;-91
2023/04/20 11:42:55;;;;;;;10.23;6.30;;;9.60;99.90;;;;;;6189368;23;20021;-91
2023/04/20 11:45:20;;;;;;;8.32;5.30;;;9.60;99.90;;;;;;6186481;23;20016;-91
2023/04/20 11:47:46;;;;;;;9.70;6.05;;;9.60;99.90;;;;;;6184250;23;20028;-90
2023/04/20 11:50:12;;;;;;;10.48;6.63;;;9.70;99.90;;;;;;6186173;23;20021;-90
2023/04/20 11:52:37;;;;;;;9.73;5.63;;;9.70;99.90;;;;;;6183288;23;20013;-90
2023/04/20 11:55:03;;;;;;;10.85;5.80;;;9.70;99.90;;;;;;6182704;23;20027;-91
2023/04/20 11:57:29;;;;;;;11.55;6.05;;;9.80;99.90;;;;;;6184954;23;20013;-93
2023/04/20 11:59:54;;;;;;;11.70;6.28;;;9.80;99.90;;;;;;6183867;23;20023;-91
2023/04/20 12:02:20;;;;;;;10.05;6.18;;;9.90;99.90;;;;;;6185293;23;20021;-90
2023/04/20 12:04:45;;;;;;;8.55;5.65;;;9.90;99.90;;;;;;6184554;23;20398;-92
2023/04/20 12:07:11;;;;;;;10.63;6.30;;;10.00;99.90;;;;;;6183680;23;20024;-92
2023/04/20 12:09:37;;;;;;;9.55;6.00;;;10.00;99.90;;;;;;6184537;23;20009;-92
2023/04/20 12:12:07;;;;;;;9.88;6.38;;;10.10;99.90;;;;;;6186898;23;20020;-91
2023/04/20 12:14:33;;;;;;;10.20;6.85;;;10.10;99.90;;;;;;6183407;23;20012;-88
2023/04/20 12:17:00;;;;;;;10.75;6.10;;;10.10;99.90;;;;;;6186499;23;20021;-90
2023/04/20 12:19:26;;;;;;;10.90;6.38;;;10.20;99.90;;;;;;6186812;23;20017;-92
2023/04/20 12:21:51;;;;;;;10.02;6.82;;;10.20;99.90;;;;;;6186978;23;20445;-94
2023/04/20 12:24:17;;;;;;;10.18;6.85;;;10.30;99.90;;;;;;6185705;23;20017;-92
2023/04/20 12:26:43;;;;;;;10.88;6.80;;;10.30;99.90;;;;;;6187041;23;20017;-93
2023/04/20 12:29:08;;;;;;;10.55;6.75;;;10.40;99.90;;;;;;6185727;23;20017;-92
2023/04/20 12:31:34;;;;;;;12.73;7.20;;;10.40;99.90;;;;;;6186627;23;20323;-91
2023/04/20 12:34:00;;;;;;;10.18;7.28;;;10.40;99.90;;;;;;6187289;23;20457;-92
2023/04/20 12:36:26;;;;;;;10.85;6.70;;;10.50;99.90;;;;;;6188201;23;20021;-93
2023/04/20 12:38:54;;;;;;;10.95;6.82;;;10.50;99.90;;;;;;6186591;23;20023;-89
2023/04/20 12:41:21;;;;;;;14.27;7.40;;;10.60;99.90;;;;;;6188788;23;20330;-95
2023/04/20 12:43:50;;;;;;;11.27;6.57;;;10.60;99.90;;;;;;6187914;23;20085;-93
2023/04/20 12:46:16;;;;;;;10.40;6.55;;;10.60;99.70;;;;;;6186790;23;20024;-93
2023/04/20 12:48:44;;;;;;;12.27;7.00;;;10.70;99.60;;;;;;6186605;23;20100;-92
2023/04/20 12:51:09;;;;;;;10.35;6.82;;;10.70;99.60;;;;;;6188676;23;20388;-91
2023/04/20 12:53:35;;;;;;;13.00;7.18;;;10.70;99.40;;;;;;6188106;23;20021;-92
2023/04/20 12:56:00;;;;;;;10.63;6.90;;;10.80;99.40;;;;;;6186723;23;20023;-93